sensor_id;sensor_type;location;lat;lon;timestamp;temperature;humidity
53268;DHT22;39156;51.176;6.738;2023-07-13T00:00:26;18.60;48.50
53268;DHT22;39156;51.176;6.738;2023-07-13T00:02:52;18.60;48.70
53268;DHT22;39156;51.176;6.738;2023-07-13T00:05:22;18.60;48.80
53268;DHT22;39156;51.176;6.738;2023-07-13T00:07:49;18.60;48.90
53268;DHT22;39156;51.176;6.738;2023-07-13T00:10:16;18.50;49.00
53268;DHT22;39156;51.176;6.738;2023-07-13T00:12:42;18.50;49.10
53268;DHT22;39156;51.176;6.738;2023-07-13T00:15:20;18.50;49.20
53268;DHT22;39156;51.176;6.738;2023-07-13T00:17:51;18.50;49.60
53268;DHT22;39156;51.176;6.738;2023-07-13T00:20:17;18.40;49.90
53268;DHT22;39156;51.176;6.738;2023-07-13T00:22:43;18.40;49.00
53268;DHT22;39156;51.176;6.738;2023-07-13T00:25:11;18.40;49.30
53268;DHT22;39156;51.176;6.738;2023-07-13T00:27:37;18.40;49.70
53268;DHT22;39156;51.176;6.738;2023-07-13T00:30:03;18.40;49.70
53268;DHT22;39156;51.176;6.738;2023-07-13T00:32:30;18.30;49.80
53268;DHT22;39156;51.176;6.738;2023-07-13T00:34:57;18.30;49.90
53268;DHT22;39156;51.176;6.738;2023-07-13T00:37:23;18.30;50.00
53268;DHT22;39156;51.176;6.738;2023-07-13T00:39:49;18.20;50.10
53268;DHT22;39156;51.176;6.738;2023-07-13T00:42:15;18.20;50.20
53268;DHT22;39156;51.176;6.738;2023-07-13T00:44:41;18.20;50.30
53268;DHT22;39156;51.176;6.738;2023-07-13T00:47:06;18.10;50.40
53268;DHT22;39156;51.176;6.738;2023-07-13T00:49:34;18.10;50.40
53268;DHT22;39156;51.176;6.738;2023-07-13T00:52:05;18.10;50.70
53268;DHT22;39156;51.176;6.738;2023-07-13T00:54:36;18.10;50.80
53268;DHT22;39156;51.176;6.738;2023-07-13T00:57:12;18.00;50.90
53268;DHT22;39156;51.176;6.738;2023-07-13T00:59:43;18.00;51.00
53268;DHT22;39156;51.176;6.738;2023-07-13T01:02:11;18.00;51.10
53268;DHT22;39156;51.176;6.738;2023-07-13T01:04:37;17.90;51.10
53268;DHT22;39156;51.176;6.738;2023-07-13T01:07:04;17.90;51.20
53268;DHT22;39156;51.176;6.738;2023-07-13T01:09:31;17.90;51.40
53268;DHT22;39156;51.176;6.738;2023-07-13T01:11:57;17.80;51.50
53268;DHT22;39156;51.176;6.738;2023-07-13T01:14:23;17.80;51.50
53268;DHT22;39156;51.176;6.738;2023-07-13T01:16:49;17.80;51.80
53268;DHT22;39156;51.176;6.738;2023-07-13T01:22:02;17.70;52.30
53268;DHT22;39156;51.176;6.738;2023-07-13T01:24:35;17.70;52.00
53268;DHT22;39156;51.176;6.738;2023-07-13T01:27:02;17.70;52.30
53268;DHT22;39156;51.176;6.738;2023-07-13T01:29:28;17.60;52.30
53268;DHT22;39156;51.176;6.738;2023-07-13T01:31:55;17.60;52.40
53268;DHT22;39156;51.176;6.738;2023-07-13T01:34:20;17.60;52.60
53268;DHT22;39156;51.176;6.738;2023-07-13T01:36:46;17.50;52.60
53268;DHT22;39156;51.176;6.738;2023-07-13T01:39:11;17.50;52.80
53268;DHT22;39156;51.176;6.738;2023-07-13T01:41:37;17.40;52.80
53268;DHT22;39156;51.176;6.738;2023-07-13T01:44:03;17.50;53.00
53268;DHT22;39156;51.176;6.738;2023-07-13T01:46:29;17.40;53.20
53268;DHT22;39156;51.176;6.738;2023-07-13T01:48:54;17.30;53.20
53268;DHT22;39156;51.176;6.738;2023-07-13T01:51:20;17.40;53.30
53268;DHT22;39156;51.176;6.738;2023-07-13T01:53:46;17.30;53.40
53268;DHT22;39156;51.176;6.738;2023-07-13T01:56:12;17.40;53.60
53268;DHT22;39156;51.176;6.738;2023-07-13T01:58:38;17.30;53.60
53268;DHT22;39156;51.176;6.738;2023-07-13T02:01:03;17.30;53.70
53268;DHT22;39156;51.176;6.738;2023-07-13T02:03:29;17.30;53.80
53268;DHT22;39156;51.176;6.738;2023-07-13T02:05:54;17.20;53.80
53268;DHT22;39156;51.176;6.738;2023-07-13T02:08:20;17.30;53.90
53268;DHT22;39156;51.176;6.738;2023-07-13T02:10:46;17.20;54.00
53268;DHT22;39156;51.176;6.738;2023-07-13T02:13:11;17.20;54.10
53268;DHT22;39156;51.176;6.738;2023-07-13T02:15:40;17.20;54.20
53268;DHT22;39156;51.176;6.738;2023-07-13T02:18:06;17.10;54.40
53268;DHT22;39156;51.176;6.738;2023-07-13T02:20:32;17.20;54.30
53268;DHT22;39156;51.176;6.738;2023-07-13T02:22:57;17.10;54.40
53268;DHT22;39156;51.176;6.738;2023-07-13T02:25:23;17.10;54.60
53268;DHT22;39156;51.176;6.738;2023-07-13T02:27:50;17.10;54.70
53268;DHT22;39156;51.176;6.738;2023-07-13T02:30:16;17.00;54.70
53268;DHT22;39156;51.176;6.738;2023-07-13T02:32:41;17.00;54.70
53268;DHT22;39156;51.176;6.738;2023-07-13T02:35:09;17.00;54.80
53268;DHT22;39156;51.176;6.738;2023-07-13T02:37:34;17.00;55.00
53268;DHT22;39156;51.176;6.738;2023-07-13T02:40:00;17.00;55.10
53268;DHT22;39156;51.176;6.738;2023-07-13T02:42:26;16.90;55.20
53268;DHT22;39156;51.176;6.738;2023-07-13T02:44:51;16.90;55.40
53268;DHT22;39156;51.176;6.738;2023-07-13T02:47:17;17.00;55.50
53268;DHT22;39156;51.176;6.738;2023-07-13T02:49:43;16.90;55.60
53268;DHT22;39156;51.176;6.738;2023-07-13T02:52:09;16.90;55.70
53268;DHT22;39156;51.176;6.738;2023-07-13T02:54:35;16.90;55.80
53268;DHT22;39156;51.176;6.738;2023-07-13T02:57:00;16.80;56.00
53268;DHT22;39156;51.176;6.738;2023-07-13T02:59:26;16.80;56.10
53268;DHT22;39156;51.176;6.738;2023-07-13T03:01:52;16.80;56.20
53268;DHT22;39156;51.176;6.738;2023-07-13T03:04:18;16.80;56.30
53268;DHT22;39156;51.176;6.738;2023-07-13T03:06:45;16.80;56.50
53268;DHT22;39156;51.176;6.738;2023-07-13T03:09:10;16.70;56.60
53268;DHT22;39156;51.176;6.738;2023-07-13T03:11:38;16.70;56.60
53268;DHT22;39156;51.176;6.738;2023-07-13T03:14:03;16.70;56.80
53268;DHT22;39156;51.176;6.738;2023-07-13T03:16:29;16.70;56.90
53268;DHT22;39156;51.176;6.738;2023-07-13T03:18:55;16.70;57.10
53268;DHT22;39156;51.176;6.738;2023-07-13T03:21:21;16.70;57.10
53268;DHT22;39156;51.176;6.738;2023-07-13T03:23:46;16.60;57.10
53268;DHT22;39156;51.176;6.738;2023-07-13T03:26:15;16.60;57.30
53268;DHT22;39156;51.176;6.738;2023-07-13T03:28:43;16.60;57.60
53268;DHT22;39156;51.176;6.738;2023-07-13T03:31:11;16.60;57.60
53268;DHT22;39156;51.176;6.738;2023-07-13T03:33:39;16.60;57.80
53268;DHT22;39156;51.176;6.738;2023-07-13T03:36:06;16.50;57.80
53268;DHT22;39156;51.176;6.738;2023-07-13T03:38:33;16.50;58.00
53268;DHT22;39156;51.176;6.738;2023-07-13T03:40:59;16.50;58.00
53268;DHT22;39156;51.176;6.738;2023-07-13T03:43:25;16.50;58.10
53268;DHT22;39156;51.176;6.738;2023-07-13T03:45:51;16.50;58.20
53268;DHT22;39156;51.176;6.738;2023-07-13T03:48:16;16.50;58.20
53268;DHT22;39156;51.176;6.738;2023-07-13T03:50:42;16.40;58.20
53268;DHT22;39156;51.176;6.738;2023-07-13T03:53:08;16.50;58.40
53268;DHT22;39156;51.176;6.738;2023-07-13T03:55:34;16.40;58.30
53268;DHT22;39156;51.176;6.738;2023-07-13T04:01:01;16.50;58.60
53268;DHT22;39156;51.176;6.738;2023-07-13T04:03:28;16.50;58.50
53268;DHT22;39156;51.176;6.738;2023-07-13T04:05:55;16.50;58.50
53268;DHT22;39156;51.176;6.738;2023-07-13T04:08:28;16.50;58.50
53268;DHT22;39156;51.176;6.738;2023-07-13T04:10:56;16.60;58.60
53268;DHT22;39156;51.176;6.738;2023-07-13T04:13:22;16.60;58.60
53268;DHT22;39156;51.176;6.738;2023-07-13T04:15:49;16.60;58.60
53268;DHT22;39156;51.176;6.738;2023-07-13T04:18:15;16.70;58.70
53268;DHT22;39156;51.176;6.738;2023-07-13T04:20:41;16.70;58.60
53268;DHT22;39156;51.176;6.738;2023-07-13T04:23:06;16.80;58.70
53268;DHT22;39156;51.176;6.738;2023-07-13T04:25:32;16.80;58.70
53268;DHT22;39156;51.176;6.738;2023-07-13T04:27:58;16.90;58.70
53268;DHT22;39156;51.176;6.738;2023-07-13T04:30:24;17.00;58.70
53268;DHT22;39156;51.176;6.738;2023-07-13T04:32:53;17.10;58.50
53268;DHT22;39156;51.176;6.738;2023-07-13T04:35:19;17.10;58.40
53268;DHT22;39156;51.176;6.738;2023-07-13T04:37:49;17.20;58.30
53268;DHT22;39156;51.176;6.738;2023-07-13T04:40:16;17.20;58.20
53268;DHT22;39156;51.176;6.738;2023-07-13T04:42:43;17.30;58.60
53268;DHT22;39156;51.176;6.738;2023-07-13T04:45:09;17.50;58.90
53268;DHT22;39156;51.176;6.738;2023-07-13T04:47:35;17.70;59.10
53268;DHT22;39156;51.176;6.738;2023-07-13T04:50:01;18.10;59.20
53268;DHT22;39156;51.176;6.738;2023-07-13T04:52:27;18.40;58.90
53268;DHT22;39156;51.176;6.738;2023-07-13T04:54:52;18.80;58.50
53268;DHT22;39156;51.176;6.738;2023-07-13T04:57:18;19.30;57.80
53268;DHT22;39156;51.176;6.738;2023-07-13T04:59:44;19.80;57.20
53268;DHT22;39156;51.176;6.738;2023-07-13T05:02:10;20.20;56.30
53268;DHT22;39156;51.176;6.738;2023-07-13T05:04:36;20.70;55.40
53268;DHT22;39156;51.176;6.738;2023-07-13T05:07:01;21.10;54.50
53268;DHT22;39156;51.176;6.738;2023-07-13T05:09:27;21.50;54.00
53268;DHT22;39156;51.176;6.738;2023-07-13T05:11:53;21.90;53.40
53268;DHT22;39156;51.176;6.738;2023-07-13T05:14:18;22.20;52.80
53268;DHT22;39156;51.176;6.738;2023-07-13T05:16:44;22.60;52.30
53268;DHT22;39156;51.176;6.738;2023-07-13T05:19:10;23.00;51.60
53268;DHT22;39156;51.176;6.738;2023-07-13T05:21:37;23.30;51.50
53268;DHT22;39156;51.176;6.738;2023-07-13T05:24:03;23.70;50.60
53268;DHT22;39156;51.176;6.738;2023-07-13T05:26:29;24.00;49.90
53268;DHT22;39156;51.176;6.738;2023-07-13T05:28:54;24.20;49.00
53268;DHT22;39156;51.176;6.738;2023-07-13T05:31:20;24.30;48.30
53268;DHT22;39156;51.176;6.738;2023-07-13T05:33:46;24.40;47.90
53268;DHT22;39156;51.176;6.738;2023-07-13T05:36:12;24.50;47.70
53268;DHT22;39156;51.176;6.738;2023-07-13T05:38:37;24.50;47.30
53268;DHT22;39156;51.176;6.738;2023-07-13T05:41:03;24.50;47.10
53268;DHT22;39156;51.176;6.738;2023-07-13T05:43:29;24.40;47.00
53268;DHT22;39156;51.176;6.738;2023-07-13T05:45:56;24.40;47.20
53268;DHT22;39156;51.176;6.738;2023-07-13T05:48:22;24.40;47.30
53268;DHT22;39156;51.176;6.738;2023-07-13T05:50:48;24.50;47.40
53268;DHT22;39156;51.176;6.738;2023-07-13T05:53:14;24.70;47.60
53268;DHT22;39156;51.176;6.738;2023-07-13T05:55:44;24.80;47.70
53268;DHT22;39156;51.176;6.738;2023-07-13T05:58:18;25.00;47.20
53268;DHT22;39156;51.176;6.738;2023-07-13T06:00:44;25.20;47.10
53268;DHT22;39156;51.176;6.738;2023-07-13T06:03:10;25.40;47.20
53268;DHT22;39156;51.176;6.738;2023-07-13T06:05:37;25.60;46.80
53268;DHT22;39156;51.176;6.738;2023-07-13T06:08:04;25.70;46.20
53268;DHT22;39156;51.176;6.738;2023-07-13T06:10:33;25.80;46.00
53268;DHT22;39156;51.176;6.738;2023-07-13T06:12:59;25.90;45.60
53268;DHT22;39156;51.176;6.738;2023-07-13T06:15:25;26.10;45.90
53268;DHT22;39156;51.176;6.738;2023-07-13T06:17:50;26.40;47.30
53268;DHT22;39156;51.176;6.738;2023-07-13T06:20:16;26.50;45.80
53268;DHT22;39156;51.176;6.738;2023-07-13T06:22:42;26.80;46.30
53268;DHT22;39156;51.176;6.738;2023-07-13T06:25:08;27.00;45.50
53268;DHT22;39156;51.176;6.738;2023-07-13T06:27:34;27.20;45.30
53268;DHT22;39156;51.176;6.738;2023-07-13T06:29:59;27.40;44.80
53268;DHT22;39156;51.176;6.738;2023-07-13T06:32:25;27.60;44.70
53268;DHT22;39156;51.176;6.738;2023-07-13T06:34:51;27.80;44.20
53268;DHT22;39156;51.176;6.738;2023-07-13T06:37:17;28.10;43.70
53268;DHT22;39156;51.176;6.738;2023-07-13T06:39:43;28.30;43.60
53268;DHT22;39156;51.176;6.738;2023-07-13T06:42:09;28.60;43.40
53268;DHT22;39156;51.176;6.738;2023-07-13T06:44:36;28.80;42.80
53268;DHT22;39156;51.176;6.738;2023-07-13T06:47:01;29.00;42.20
53268;DHT22;39156;51.176;6.738;2023-07-13T06:49:27;29.00;41.70
53268;DHT22;39156;51.176;6.738;2023-07-13T06:51:53;28.80;41.20
53268;DHT22;39156;51.176;6.738;2023-07-13T06:54:18;28.60;41.30
53268;DHT22;39156;51.176;6.738;2023-07-13T06:56:44;28.40;42.00
53268;DHT22;39156;51.176;6.738;2023-07-13T06:59:10;28.10;41.20
53268;DHT22;39156;51.176;6.738;2023-07-13T07:01:35;27.80;41.70
53268;DHT22;39156;51.176;6.738;2023-07-13T07:04:01;27.40;41.60
53268;DHT22;39156;51.176;6.738;2023-07-13T07:06:27;27.00;41.90
53268;DHT22;39156;51.176;6.738;2023-07-13T07:08:53;26.60;42.20
53268;DHT22;39156;51.176;6.738;2023-07-13T07:11:24;26.20;42.60
53268;DHT22;39156;51.176;6.738;2023-07-13T07:13:52;25.80;43.10
53268;DHT22;39156;51.176;6.738;2023-07-13T07:16:19;25.50;43.30
53268;DHT22;39156;51.176;6.738;2023-07-13T07:18:45;25.20;43.90
53268;DHT22;39156;51.176;6.738;2023-07-13T07:21:12;24.90;44.20
53268;DHT22;39156;51.176;6.738;2023-07-13T07:23:38;24.60;44.60
53268;DHT22;39156;51.176;6.738;2023-07-13T07:26:04;24.60;45.20
53268;DHT22;39156;51.176;6.738;2023-07-13T07:28:30;24.50;45.60
53268;DHT22;39156;51.176;6.738;2023-07-13T07:30:57;24.60;45.90
53268;DHT22;39156;51.176;6.738;2023-07-13T07:33:24;24.70;46.00
53268;DHT22;39156;51.176;6.738;2023-07-13T07:35:51;24.80;45.90
53268;DHT22;39156;51.176;6.738;2023-07-13T07:38:16;24.80;45.70
53268;DHT22;39156;51.176;6.738;2023-07-13T07:40:42;25.10;46.10
53268;DHT22;39156;51.176;6.738;2023-07-13T07:43:10;25.30;46.30
53268;DHT22;39156;51.176;6.738;2023-07-13T07:45:38;25.50;46.00
53268;DHT22;39156;51.176;6.738;2023-07-13T07:48:04;25.70;45.70
53268;DHT22;39156;51.176;6.738;2023-07-13T07:50:31;26.00;45.30
53268;DHT22;39156;51.176;6.738;2023-07-13T07:52:57;26.20;45.00
53268;DHT22;39156;51.176;6.738;2023-07-13T07:55:23;26.40;44.80
53268;DHT22;39156;51.176;6.738;2023-07-13T07:57:51;26.60;45.10
53268;DHT22;39156;51.176;6.738;2023-07-13T08:00:16;26.90;44.90
53268;DHT22;39156;51.176;6.738;2023-07-13T08:02:43;27.20;45.90
53268;DHT22;39156;51.176;6.738;2023-07-13T08:05:09;27.50;44.50
53268;DHT22;39156;51.176;6.738;2023-07-13T08:07:37;27.60;43.50
53268;DHT22;39156;51.176;6.738;2023-07-13T08:10:04;27.70;43.70
53268;DHT22;39156;51.176;6.738;2023-07-13T08:12:34;27.80;43.50
53268;DHT22;39156;51.176;6.738;2023-07-13T08:15:00;27.90;43.30
53268;DHT22;39156;51.176;6.738;2023-07-13T08:17:26;27.90;43.20
53268;DHT22;39156;51.176;6.738;2023-07-13T08:19:52;27.90;43.30
53268;DHT22;39156;51.176;6.738;2023-07-13T08:22:18;27.80;42.80
53268;DHT22;39156;51.176;6.738;2023-07-13T08:24:43;27.70;43.00
53268;DHT22;39156;51.176;6.738;2023-07-13T08:27:10;27.60;43.00
53268;DHT22;39156;51.176;6.738;2023-07-13T08:29:37;27.50;42.90
53268;DHT22;39156;51.176;6.738;2023-07-13T08:32:05;27.50;43.10
53268;DHT22;39156;51.176;6.738;2023-07-13T08:34:34;27.40;43.10
53268;DHT22;39156;51.176;6.738;2023-07-13T08:37:01;27.30;43.20
53268;DHT22;39156;51.176;6.738;2023-07-13T08:39:29;27.30;43.30
53268;DHT22;39156;51.176;6.738;2023-07-13T08:42:01;27.30;43.40
53268;DHT22;39156;51.176;6.738;2023-07-13T08:44:49;27.30;43.40
53268;DHT22;39156;51.176;6.738;2023-07-13T08:47:17;27.30;43.30
53268;DHT22;39156;51.176;6.738;2023-07-13T08:49:44;27.30;43.70
53268;DHT22;39156;51.176;6.738;2023-07-13T08:52:22;27.40;43.80
53268;DHT22;39156;51.176;6.738;2023-07-13T08:55:02;27.40;43.60
53268;DHT22;39156;51.176;6.738;2023-07-13T08:57:34;27.50;43.40
53268;DHT22;39156;51.176;6.738;2023-07-13T08:59:59;27.50;44.20
53268;DHT22;39156;51.176;6.738;2023-07-13T09:02:33;27.50;43.30
53268;DHT22;39156;51.176;6.738;2023-07-13T09:05:18;27.60;43.70
53268;DHT22;39156;51.176;6.738;2023-07-13T09:08:08;27.70;43.20
53268;DHT22;39156;51.176;6.738;2023-07-13T09:10:52;27.70;43.30
53268;DHT22;39156;51.176;6.738;2023-07-13T09:13:46;27.60;43.10
53268;DHT22;39156;51.176;6.738;2023-07-13T09:16:24;27.50;43.10
53268;DHT22;39156;51.176;6.738;2023-07-13T09:18:54;27.50;43.10
53268;DHT22;39156;51.176;6.738;2023-07-13T09:21:25;27.40;42.80
53268;DHT22;39156;51.176;6.738;2023-07-13T09:27:22;27.20;42.90
53268;DHT22;39156;51.176;6.738;2023-07-13T09:29:57;27.00;42.90
53268;DHT22;39156;51.176;6.738;2023-07-13T09:32:31;27.00;43.20
53268;DHT22;39156;51.176;6.738;2023-07-13T09:34:58;26.90;43.00
53268;DHT22;39156;51.176;6.738;2023-07-13T09:37:30;26.80;43.00
53268;DHT22;39156;51.176;6.738;2023-07-13T09:39:58;26.80;43.20
53268;DHT22;39156;51.176;6.738;2023-07-13T09:42:25;26.70;43.10
53268;DHT22;39156;51.176;6.738;2023-07-13T09:44:54;26.60;43.10
53268;DHT22;39156;51.176;6.738;2023-07-13T09:47:24;26.50;43.00
53268;DHT22;39156;51.176;6.738;2023-07-13T09:50:04;26.40;43.30
53268;DHT22;39156;51.176;6.738;2023-07-13T09:52:46;26.20;43.80
53268;DHT22;39156;51.176;6.738;2023-07-13T09:57:49;26.10;43.70
53268;DHT22;39156;51.176;6.738;2023-07-13T10:00:26;26.00;43.70
53268;DHT22;39156;51.176;6.738;2023-07-13T10:03:04;25.90;43.80
53268;DHT22;39156;51.176;6.738;2023-07-13T10:05:43;25.90;44.30
53268;DHT22;39156;51.176;6.738;2023-07-13T10:08:36;25.90;44.40
53268;DHT22;39156;51.176;6.738;2023-07-13T10:11:14;25.90;44.30
53268;DHT22;39156;51.176;6.738;2023-07-13T10:13:51;26.00;44.00
53268;DHT22;39156;51.176;6.738;2023-07-13T10:16:21;26.00;44.00
53268;DHT22;39156;51.176;6.738;2023-07-13T10:18:51;26.10;44.00
53268;DHT22;39156;51.176;6.738;2023-07-13T10:21:22;26.10;44.00
53268;DHT22;39156;51.176;6.738;2023-07-13T10:23:54;26.20;44.20
53268;DHT22;39156;51.176;6.738;2023-07-13T10:26:29;26.20;44.20
53268;DHT22;39156;51.176;6.738;2023-07-13T10:29:01;26.20;44.10
53268;DHT22;39156;51.176;6.738;2023-07-13T10:31:30;26.20;44.10
53268;DHT22;39156;51.176;6.738;2023-07-13T10:33:56;26.20;43.90
53268;DHT22;39156;51.176;6.738;2023-07-13T10:36:31;26.20;43.80
53268;DHT22;39156;51.176;6.738;2023-07-13T10:39:03;26.20;43.80
53268;DHT22;39156;51.176;6.738;2023-07-13T10:41:35;26.20;43.70
53268;DHT22;39156;51.176;6.738;2023-07-13T10:44:04;26.20;43.70
53268;DHT22;39156;51.176;6.738;2023-07-13T10:46:32;26.10;43.60
53268;DHT22;39156;51.176;6.738;2023-07-13T10:49:04;26.20;43.90
53268;DHT22;39156;51.176;6.738;2023-07-13T10:51:31;26.10;44.00
53268;DHT22;39156;51.176;6.738;2023-07-13T10:54:43;26.10;43.50
53268;DHT22;39156;51.176;6.738;2023-07-13T10:57:20;26.10;43.50
53268;DHT22;39156;51.176;6.738;2023-07-13T10:59:49;26.00;43.40
53268;DHT22;39156;51.176;6.738;2023-07-13T11:02:35;25.90;43.40
53268;DHT22;39156;51.176;6.738;2023-07-13T11:05:13;25.80;43.50
53268;DHT22;39156;51.176;6.738;2023-07-13T11:10:59;25.60;43.70
53268;DHT22;39156;51.176;6.738;2023-07-13T11:13:37;25.50;43.80
53268;DHT22;39156;51.176;6.738;2023-07-13T11:18:39;25.40;44.10
53268;DHT22;39156;51.176;6.738;2023-07-13T11:21:23;25.40;44.20
53268;DHT22;39156;51.176;6.738;2023-07-13T11:23:54;25.30;44.20
53268;DHT22;39156;51.176;6.738;2023-07-13T11:29:45;25.20;44.80
53268;DHT22;39156;51.176;6.738;2023-07-13T11:32:25;25.20;44.60
53268;DHT22;39156;51.176;6.738;2023-07-13T11:34:55;25.30;44.90
53268;DHT22;39156;51.176;6.738;2023-07-13T11:37:22;25.20;44.20
53268;DHT22;39156;51.176;6.738;2023-07-13T11:39:50;25.30;44.30
53268;DHT22;39156;51.176;6.738;2023-07-13T11:42:18;25.30;44.60
53268;DHT22;39156;51.176;6.738;2023-07-13T11:44:52;25.30;44.80
53268;DHT22;39156;51.176;6.738;2023-07-13T11:47:21;25.50;44.00
53268;DHT22;39156;51.176;6.738;2023-07-13T11:49:53;25.50;44.00
53268;DHT22;39156;51.176;6.738;2023-07-13T11:52:34;25.70;43.50
53268;DHT22;39156;51.176;6.738;2023-07-13T11:55:04;25.70;43.50
53268;DHT22;39156;51.176;6.738;2023-07-13T11:57:47;25.80;43.50
53268;DHT22;39156;51.176;6.738;2023-07-13T12:00:22;25.80;43.10
53268;DHT22;39156;51.176;6.738;2023-07-13T12:02:51;25.80;43.60
53268;DHT22;39156;51.176;6.738;2023-07-13T12:05:19;25.70;43.50
53268;DHT22;39156;51.176;6.738;2023-07-13T12:07:47;25.80;43.20
53268;DHT22;39156;51.176;6.738;2023-07-13T12:13:05;25.90;43.10
53268;DHT22;39156;51.176;6.738;2023-07-13T12:15:40;25.90;42.60
53268;DHT22;39156;51.176;6.738;2023-07-13T12:18:22;25.90;42.70
53268;DHT22;39156;51.176;6.738;2023-07-13T12:20:50;26.00;42.80
53268;DHT22;39156;51.176;6.738;2023-07-13T12:25:58;26.10;42.00
53268;DHT22;39156;51.176;6.738;2023-07-13T12:31:24;26.20;41.40
53268;DHT22;39156;51.176;6.738;2023-07-13T12:36:37;26.40;41.20
53268;DHT22;39156;51.176;6.738;2023-07-13T12:39:13;26.40;40.80
53268;DHT22;39156;51.176;6.738;2023-07-13T12:42:19;26.40;40.70
53268;DHT22;39156;51.176;6.738;2023-07-13T12:44:54;26.40;41.10
53268;DHT22;39156;51.176;6.738;2023-07-13T12:47:23;26.50;40.60
53268;DHT22;39156;51.176;6.738;2023-07-13T12:49:54;26.50;40.60
53268;DHT22;39156;51.176;6.738;2023-07-13T12:52:33;26.40;41.00
53268;DHT22;39156;51.176;6.738;2023-07-13T12:55:10;26.40;41.20
53268;DHT22;39156;51.176;6.738;2023-07-13T12:57:51;26.40;41.40
53268;DHT22;39156;51.176;6.738;2023-07-13T13:00:26;26.40;41.50
53268;DHT22;39156;51.176;6.738;2023-07-13T13:02:56;26.40;41.20
53268;DHT22;39156;51.176;6.738;2023-07-13T13:05:25;26.40;41.10
53268;DHT22;39156;51.176;6.738;2023-07-13T13:07:52;26.50;40.80
53268;DHT22;39156;51.176;6.738;2023-07-13T13:10:17;26.50;41.00
53268;DHT22;39156;51.176;6.738;2023-07-13T13:12:43;26.50;40.90
53268;DHT22;39156;51.176;6.738;2023-07-13T13:15:10;26.50;40.90
53268;DHT22;39156;51.176;6.738;2023-07-13T13:17:37;26.70;41.10
53268;DHT22;39156;51.176;6.738;2023-07-13T13:20:20;26.70;40.90
53268;DHT22;39156;51.176;6.738;2023-07-13T13:22:47;26.80;40.80
53268;DHT22;39156;51.176;6.738;2023-07-13T13:25:14;26.80;40.90
53268;DHT22;39156;51.176;6.738;2023-07-13T13:27:44;26.80;40.60
53268;DHT22;39156;51.176;6.738;2023-07-13T13:30:15;26.80;40.60
53268;DHT22;39156;51.176;6.738;2023-07-13T13:32:49;26.70;40.50
53268;DHT22;39156;51.176;6.738;2023-07-13T13:35:17;26.70;40.70
53268;DHT22;39156;51.176;6.738;2023-07-13T13:37:44;26.60;40.50
53268;DHT22;39156;51.176;6.738;2023-07-13T13:40:15;26.50;40.80
53268;DHT22;39156;51.176;6.738;2023-07-13T13:42:42;26.40;40.80
53268;DHT22;39156;51.176;6.738;2023-07-13T13:45:12;26.30;40.90
53268;DHT22;39156;51.176;6.738;2023-07-13T13:47:39;26.30;40.80
53268;DHT22;39156;51.176;6.738;2023-07-13T13:50:17;26.20;40.70
53268;DHT22;39156;51.176;6.738;2023-07-13T13:52:46;26.30;40.90
53268;DHT22;39156;51.176;6.738;2023-07-13T13:55:13;26.30;40.60
53268;DHT22;39156;51.176;6.738;2023-07-13T13:57:48;26.30;40.60
53268;DHT22;39156;51.176;6.738;2023-07-13T14:00:15;26.20;40.70
53268;DHT22;39156;51.176;6.738;2023-07-13T14:02:45;26.20;40.70
53268;DHT22;39156;51.176;6.738;2023-07-13T14:05:22;26.20;40.60
53268;DHT22;39156;51.176;6.738;2023-07-13T14:07:49;26.20;41.00
53268;DHT22;39156;51.176;6.738;2023-07-13T14:10:17;26.20;41.00
53268;DHT22;39156;51.176;6.738;2023-07-13T14:12:54;26.30;40.90
53268;DHT22;39156;51.176;6.738;2023-07-13T14:15:26;26.30;41.00
53268;DHT22;39156;51.176;6.738;2023-07-13T14:17:54;26.30;41.00
53268;DHT22;39156;51.176;6.738;2023-07-13T14:20:22;26.40;41.20
53268;DHT22;39156;51.176;6.738;2023-07-13T14:22:49;26.40;41.00
53268;DHT22;39156;51.176;6.738;2023-07-13T14:25:17;26.40;41.10
53268;DHT22;39156;51.176;6.738;2023-07-13T14:27:45;26.40;40.50
53268;DHT22;39156;51.176;6.738;2023-07-13T14:30:14;26.50;40.70
53268;DHT22;39156;51.176;6.738;2023-07-13T14:32:41;26.50;40.30
53268;DHT22;39156;51.176;6.738;2023-07-13T14:35:10;26.50;40.20
53268;DHT22;39156;51.176;6.738;2023-07-13T14:37:42;26.40;40.50
53268;DHT22;39156;51.176;6.738;2023-07-13T14:40:30;26.40;40.30
53268;DHT22;39156;51.176;6.738;2023-07-13T14:42:57;26.20;40.40
53268;DHT22;39156;51.176;6.738;2023-07-13T14:45:23;26.10;40.50
53268;DHT22;39156;51.176;6.738;2023-07-13T14:47:50;26.00;40.60
53268;DHT22;39156;51.176;6.738;2023-07-13T14:50:18;25.90;41.40
53268;DHT22;39156;51.176;6.738;2023-07-13T14:52:46;25.80;41.50
53268;DHT22;39156;51.176;6.738;2023-07-13T14:55:19;25.60;44.60
53268;DHT22;39156;51.176;6.738;2023-07-13T14:57:45;25.20;46.60
53268;DHT22;39156;51.176;6.738;2023-07-13T15:02:43;24.80;48.00
53268;DHT22;39156;51.176;6.738;2023-07-13T15:05:18;24.50;48.90
53268;DHT22;39156;51.176;6.738;2023-07-13T15:07:46;24.30;50.00
53268;DHT22;39156;51.176;6.738;2023-07-13T15:10:30;24.10;49.20
53268;DHT22;39156;51.176;6.738;2023-07-13T15:13:20;23.90;50.60
53268;DHT22;39156;51.176;6.738;2023-07-13T15:15:51;23.70;50.50
53268;DHT22;39156;51.176;6.738;2023-07-13T15:18:20;23.60;51.60
53268;DHT22;39156;51.176;6.738;2023-07-13T15:20:48;23.50;50.90
53268;DHT22;39156;51.176;6.738;2023-07-13T15:23:21;23.40;51.70
53268;DHT22;39156;51.176;6.738;2023-07-13T15:25:48;23.20;51.50
53268;DHT22;39156;51.176;6.738;2023-07-13T15:28:14;23.10;51.80
53268;DHT22;39156;51.176;6.738;2023-07-13T15:30:48;23.10;51.90
53268;DHT22;39156;51.176;6.738;2023-07-13T15:33:31;23.00;51.80
53268;DHT22;39156;51.176;6.738;2023-07-13T15:36:02;22.90;51.80
53268;DHT22;39156;51.176;6.738;2023-07-13T15:38:30;22.80;51.60
53268;DHT22;39156;51.176;6.738;2023-07-13T15:40:57;22.80;52.00
53268;DHT22;39156;51.176;6.738;2023-07-13T15:43:23;22.70;51.90
53268;DHT22;39156;51.176;6.738;2023-07-13T15:45:49;22.60;52.10
53268;DHT22;39156;51.176;6.738;2023-07-13T15:48:22;22.60;52.00
53268;DHT22;39156;51.176;6.738;2023-07-13T15:50:51;22.50;51.90
53268;DHT22;39156;51.176;6.738;2023-07-13T15:53:25;22.60;52.20
53268;DHT22;39156;51.176;6.738;2023-07-13T15:55:53;22.50;52.10
53268;DHT22;39156;51.176;6.738;2023-07-13T15:58:19;22.50;51.20
53268;DHT22;39156;51.176;6.738;2023-07-13T16:00:45;22.50;51.30
53268;DHT22;39156;51.176;6.738;2023-07-13T16:03:11;22.40;51.20
53268;DHT22;39156;51.176;6.738;2023-07-13T16:05:37;22.40;51.00
53268;DHT22;39156;51.176;6.738;2023-07-13T16:08:14;22.30;51.10
53268;DHT22;39156;51.176;6.738;2023-07-13T16:10:46;22.30;51.10
53268;DHT22;39156;51.176;6.738;2023-07-13T16:15:50;22.30;51.40
53268;DHT22;39156;51.176;6.738;2023-07-13T16:18:15;22.20;50.90